createdAt,value
2022-08-16T00:00:38.543Z,99.90
2022-08-16T00:05:47.840Z,99.90
2022-08-16T00:10:53.393Z,99.90
2022-08-16T00:15:56.706Z,99.90
2022-08-16T00:21:03.886Z,99.90
2022-08-16T00:26:34.482Z,99.90
2022-08-16T00:31:58.688Z,99.90
2022-08-16T00:36:56.478Z,99.90
2022-08-16T00:42:01.761Z,99.90
2022-08-16T00:47:08.863Z,99.90
2022-08-16T00:52:29.536Z,99.90
2022-08-16T00:57:58.369Z,99.90
2022-08-16T01:02:59.759Z,99.90
2022-08-16T01:08:35.972Z,99.90
2022-08-16T01:13:32.809Z,99.90
2022-08-16T01:18:41.581Z,99.90
2022-08-16T01:23:58.651Z,99.90
2022-08-16T01:29:09.739Z,99.90
2022-08-16T01:34:25.149Z,99.90
2022-08-16T01:39:35.330Z,99.90
2022-08-16T01:44:39.507Z,99.90
2022-08-16T01:50:40.840Z,99.90
2022-08-16T01:55:09.890Z,99.90
2022-08-16T02:00:19.539Z,99.90
2022-08-16T02:05:23.615Z,99.90
2022-08-16T02:10:28.472Z,99.90
2022-08-16T02:15:35.383Z,99.90
2022-08-16T02:20:42.754Z,99.90
2022-08-16T02:25:53.669Z,99.90
2022-08-16T02:31:02.836Z,99.90
2022-08-16T02:36:06.387Z,99.90
2022-08-16T02:41:18.899Z,99.90
2022-08-16T02:46:30.219Z,99.90
2022-08-16T02:51:39.158Z,99.90
2022-08-16T02:56:47.849Z,99.90
2022-08-16T03:01:51.958Z,99.90
2022-08-16T03:07:05.933Z,99.90
2022-08-16T03:12:19.348Z,99.90
2022-08-16T03:17:24.004Z,99.90
2022-08-16T03:22:37.971Z,99.90
2022-08-16T03:27:48.163Z,99.90
2022-08-16T03:32:53.695Z,99.90
2022-08-16T03:38:03.804Z,99.90
2022-08-16T03:43:19.763Z,99.90
2022-08-16T03:48:36.301Z,99.90
2022-08-16T03:54:00.895Z,99.90
2022-08-16T03:59:07.218Z,99.90
2022-08-16T04:04:32.705Z,99.90
2022-08-16T04:09:38.163Z,99.90
2022-08-16T04:14:46.870Z,99.90
2022-08-16T04:19:54.943Z,99.90
2022-08-16T04:25:02.055Z,99.90
2022-08-16T04:30:31.861Z,99.90
2022-08-16T04:35:36.192Z,99.90
2022-08-16T04:40:43.084Z,99.90
2022-08-16T04:46:00.508Z,99.90
2022-08-16T04:51:12.309Z,99.90
2022-08-16T04:56:22.939Z,99.90
2022-08-16T05:01:56.054Z,99.90
2022-08-16T05:06:53.456Z,99.90
2022-08-16T05:12:05.477Z,99.90
2022-08-16T05:17:10.486Z,99.90
2022-08-16T05:22:18.026Z,99.90
2022-08-16T05:27:23.442Z,99.90
2022-08-16T05:32:32.986Z,99.90
2022-08-16T05:37:40.145Z,99.90
2022-08-16T05:42:47.729Z,99.90
2022-08-16T05:47:59.735Z,99.90
2022-08-16T05:53:10.754Z,99.90
2022-08-16T05:58:31.480Z,99.90
2022-08-16T06:03:38.510Z,99.90
2022-08-16T06:08:51.005Z,99.90
2022-08-16T06:13:58.538Z,99.90
2022-08-16T06:19:14.127Z,99.90
2022-08-16T06:24:53.521Z,99.90
2022-08-16T06:29:50.646Z,99.90
2022-08-16T06:35:02.346Z,99.90
2022-08-16T06:40:12.747Z,99.90
2022-08-16T06:45:23.991Z,99.90
2022-08-16T06:50:42.352Z,98.70
2022-08-16T06:55:46.660Z,97.20
2022-08-16T07:00:51.479Z,93.50
2022-08-16T07:05:57.237Z,92.60
2022-08-16T07:11:05.983Z,89.10
2022-08-16T07:16:20.490Z,89.80
2022-08-16T07:21:26.608Z,85.70
2022-08-16T07:26:30.385Z,84.40
2022-08-16T07:31:37.595Z,88.40
2022-08-16T07:36:58.044Z,87.20
2022-08-16T07:42:10.290Z,82.20
2022-08-16T07:47:31.422Z,80.20
2022-08-16T07:52:38.963Z,79.60
2022-08-16T07:57:58.123Z,87.00
2022-08-16T08:03:05.070Z,85.10
2022-08-16T08:08:50.584Z,84.60
2022-08-16T08:13:42.335Z,79.30
2022-08-16T08:18:56.053Z,77.20
2022-08-16T08:24:09.373Z,80.10
2022-08-16T08:29:14.678Z,71.40
2022-08-16T08:34:25.987Z,69.60
2022-08-16T08:39:31.218Z,73.80
2022-08-16T08:44:37.509Z,73.60
2022-08-16T08:49:46.404Z,72.80
2022-08-16T08:55:03.316Z,71.40
2022-08-16T09:00:14.295Z,73.20
2022-08-16T09:05:20.785Z,64.70
2022-08-16T09:10:30.235Z,67.70
2022-08-16T09:15:33.746Z,68.30
2022-08-16T09:20:59.410Z,64.00
2022-08-16T09:26:02.216Z,67.70
2022-08-16T09:31:25.892Z,62.70
2022-08-16T09:36:31.977Z,62.50
2022-08-16T09:41:37.716Z,64.80
2022-08-16T09:46:48.253Z,63.10
2022-08-16T09:51:54.796Z,63.50
2022-08-16T09:57:00.577Z,63.00
2022-08-16T10:02:27.201Z,64.50
2022-08-16T10:07:44.522Z,65.90
2022-08-16T10:13:14.259Z,59.00
2022-08-16T10:19:02.320Z,59.90
2022-08-16T10:23:41.475Z,58.00
2022-08-16T10:28:50.347Z,56.10
2022-08-16T10:33:54.271Z,55.90
2022-08-16T10:38:57.548Z,53.50
2022-08-16T10:44:02.325Z,55.90
2022-08-16T10:49:05.859Z,56.50
2022-08-16T10:54:29.529Z,56.30
2022-08-16T10:59:43.981Z,54.30
2022-08-16T11:05:10.679Z,56.60
2022-08-16T11:10:20.711Z,56.10
2022-08-16T11:15:27.488Z,55.10
2022-08-16T11:20:42.326Z,54.10
2022-08-16T11:26:16.135Z,53.70
2022-08-16T11:31:11.602Z,51.50
2022-08-16T11:36:27.925Z,57.20
2022-08-16T11:41:34.254Z,52.80
2022-08-16T11:46:45.012Z,53.10
2022-08-16T11:51:51.642Z,58.00
2022-08-16T11:56:56.795Z,59.30
2022-08-16T12:02:31.622Z,59.90
2022-08-16T12:07:25.017Z,60.40
2022-08-16T12:12:28.681Z,61.30
2022-08-16T12:17:33.400Z,66.80
2022-08-16T12:22:37.130Z,64.00
2022-08-16T12:27:40.903Z,59.10
2022-08-16T12:32:51.379Z,55.80
2022-08-16T12:37:57.781Z,54.20
2022-08-16T12:43:02.523Z,56.40
2022-08-16T12:48:33.840Z,55.70
2022-08-16T12:53:40.075Z,55.10
2022-08-16T12:58:48.967Z,55.40
2022-08-16T13:04:20.510Z,54.60
2022-08-16T13:09:26.022Z,59.70
2022-08-16T13:14:33.896Z,57.60
2022-08-16T13:20:06.021Z,58.10
2022-08-16T13:25:02.451Z,57.30
2022-08-16T13:30:35.439Z,55.40
2022-08-16T13:35:36.352Z,58.70
2022-08-16T13:40:46.965Z,57.30
2022-08-16T13:45:51.629Z,56.80
2022-08-16T13:51:04.104Z,56.10
2022-08-16T13:56:07.592Z,58.50
2022-08-16T14:01:13.797Z,56.50
2022-08-16T14:06:18.878Z,58.90
2022-08-16T14:11:22.209Z,66.00
2022-08-16T14:16:34.050Z,62.10
2022-08-16T14:21:40.950Z,61.00
2022-08-16T14:26:47.591Z,67.50
2022-08-16T14:31:53.517Z,61.50
2022-08-16T14:36:59.570Z,60.80
2022-08-16T14:42:06.246Z,57.20
2022-08-16T14:47:09.518Z,55.00
2022-08-16T14:52:44.442Z,52.60
2022-08-16T14:57:42.692Z,53.60
2022-08-16T15:02:49.666Z,53.00
2022-08-16T15:07:54.700Z,50.80
2022-08-16T15:12:58.482Z,51.90
2022-08-16T15:18:02.320Z,52.70
2022-08-16T15:23:08.880Z,51.60
2022-08-16T15:28:23.526Z,52.00
2022-08-16T15:33:42.171Z,52.10
2022-08-16T15:38:56.825Z,55.60
2022-08-16T15:44:10.870Z,53.60
2022-08-16T15:49:15.540Z,52.30
2022-08-16T15:54:30.937Z,51.00
2022-08-16T15:59:49.167Z,50.00
2022-08-16T16:04:56.643Z,53.50
2022-08-16T16:10:04.624Z,51.30
2022-08-16T16:15:08.327Z,50.20
2022-08-16T16:20:14.570Z,50.20
2022-08-16T16:25:20.169Z,51.70
2022-08-16T16:30:37.508Z,54.00
2022-08-16T16:35:47.906Z,53.00
2022-08-16T16:41:02.596Z,52.60
2022-08-16T16:46:42.204Z,53.90
2022-08-16T16:51:31.333Z,56.00
2022-08-16T16:56:37.688Z,57.40
2022-08-16T17:01:57.585Z,56.10
2022-08-16T17:07:04.198Z,60.00
2022-08-16T17:12:24.505Z,59.30
2022-08-16T17:17:29.667Z,62.10
2022-08-16T17:22:33.237Z,61.80
2022-08-16T17:27:39.794Z,63.30
2022-08-16T17:32:48.056Z,68.60
2022-08-16T17:37:54.022Z,69.20
2022-08-16T17:42:59.753Z,76.00
2022-08-16T17:48:03.293Z,87.60
2022-08-16T17:53:08.122Z,90.90
2022-08-16T17:58:22.976Z,92.60
2022-08-16T18:04:06.764Z,95.60
2022-08-16T18:09:01.609Z,97.70
2022-08-16T18:14:08.921Z,99.90
2022-08-16T18:19:12.490Z,99.90
2022-08-16T18:24:16.182Z,99.90
2022-08-16T18:29:21.299Z,99.90
2022-08-16T18:34:24.694Z,99.90
2022-08-16T18:39:28.007Z,99.90
2022-08-16T18:44:36.373Z,99.90
2022-08-16T18:49:39.658Z,99.90
2022-08-16T18:55:02.044Z,99.90
2022-08-16T19:00:12.251Z,99.90
2022-08-16T19:05:23.207Z,99.90
2022-08-16T19:10:26.623Z,99.90
2022-08-16T19:15:31.324Z,99.90
2022-08-16T19:20:35.037Z,99.90
2022-08-16T19:25:48.670Z,99.90
2022-08-16T19:30:54.417Z,99.90
2022-08-16T19:35:57.665Z,99.90
2022-08-16T19:41:01.322Z,99.90
2022-08-16T19:46:06.422Z,99.90
2022-08-16T19:51:11.576Z,99.90
2022-08-16T19:56:14.876Z,99.90
2022-08-16T20:01:19.402Z,99.90
2022-08-16T20:06:37.631Z,99.90
2022-08-16T20:11:42.261Z,99.90
2022-08-16T20:16:46.916Z,99.90
2022-08-16T20:21:50.232Z,99.90
2022-08-16T20:26:53.923Z,99.90
2022-08-16T20:31:58.695Z,99.90
2022-08-16T20:37:02.056Z,99.90
2022-08-16T20:42:05.680Z,99.90
2022-08-16T20:47:11.335Z,99.90
2022-08-16T20:52:18.640Z,99.90
2022-08-16T20:57:22.582Z,99.90
2022-08-16T21:02:28.021Z,99.90
2022-08-16T21:07:31.390Z,99.90
2022-08-16T21:12:37.713Z,99.90
2022-08-16T21:17:43.220Z,99.90
2022-08-16T21:22:52.628Z,99.90
2022-08-16T21:28:40.138Z,99.90
2022-08-16T21:33:23.635Z,99.90
2022-08-16T21:38:28.876Z,99.90
2022-08-16T21:43:33.691Z,99.90
2022-08-16T21:48:40.547Z,99.90
2022-08-16T21:53:44.518Z,99.90
2022-08-16T21:58:52.780Z,99.90
2022-08-16T22:04:35.369Z,99.90
2022-08-16T22:09:21.470Z,99.90
2022-08-16T22:14:24.687Z,99.90
2022-08-16T22:19:29.394Z,99.90
2022-08-16T22:24:33.007Z,99.90
2022-08-16T22:29:42.165Z,99.90
2022-08-16T22:34:48.299Z,99.90
2022-08-16T22:39:52.476Z,99.90
2022-08-16T22:44:56.000Z,99.90
2022-08-16T22:50:01.158Z,99.90
2022-08-16T22:55:05.193Z,99.90
2022-08-16T23:00:11.578Z,99.90
2022-08-16T23:05:18.717Z,99.90
2022-08-16T23:10:22.943Z,99.90
2022-08-16T23:15:27.967Z,99.90
2022-08-16T23:20:33.307Z,99.90
2022-08-16T23:25:37.894Z,99.90
2022-08-16T23:30:42.253Z,99.90
2022-08-16T23:35:48.803Z,99.90
2022-08-16T23:40:53.294Z,99.90
2022-08-16T23:46:00.646Z,99.90
2022-08-16T23:51:08.547Z,99.90
2022-08-16T23:56:14.009Z,99.90
